Lancaster, PA

10:24 PM EST on December 24, 2014 (GMT -0500)
Paradise | Change Station
CLOSE
Current Station
Personal Weather Station
Location: Paradise, PA
Elevation: 365 ft
Nearby Weather Stations

Elev 365 ft 40.01 °N, 76.14 °W | Updated 7 minutes ago

Overcast
Overcast
56.8 °F
Feels Like 56.8 °F
N
7.0
Wind Variable Wind from SSW
Gusts 14.0 mph

Today
High -- | Low -- °F
--% Chance of Precip.
Yesterday
High -- | Low -- °F
Precip. -- in
7:24 AM 4:44 PM
Waxing Crescent, 13% visible
Pressure 29.58 in
Visibility 7.0 miles
Clouds Overcast 600 ft
Dew Point 56 °F
Humidity 98%
Rainfall 0.42 in
Snow Depth Not available.
UV 0 out of 12
Pollen .10 out of 12
Air Quality Not available.
Flu Activity Not available.
METAR KLNS 250053Z 18006KT 7SM OVC006 12/12 A2957 RMK AO2 CIG 005V009 SLP015 T01220117

More Conditions Fewer Conditions

Pressure 29.58 in
Visibility 7.0 miles
Clouds Overcast 600 ft
Dew Point 56 °F
Humidity 98%
Rainfall 0.42 in
Snow Depth Not available.
UV 0 out of 12
Pollen .10 out of 12
Air Quality Not available.
Flu Activity Not available.
METAR KLNS 250053Z 18006KT 7SM OVC006 12/12 A2957 RMK AO2 CIG 005V009 SLP015 T01220117

More Conditions Fewer Conditions

Nowcast | as of 9:51 PM EST on December 24, 2014

Areas of low clouds and fog will be across the Susquehanna valley through 1230 am.

×

10-Day Weather Forecast

Almanac

Astronomy

Dec. 24, 2014 Rise Set
Actual Time
Civil Twilight
Nautical Twilight
Astronomical Twilight
Moon
Length of Visible Light
Length of Day
Tomorrow will be .
, % of the Moon is Illuminated

Today's Extremes

State Highs State Lows

Community

WunderPhotos

Upload Photos

1,780,221 photos uploaded!

WunderBlogs® & News

Nearby

Air Quality

  Air Quality AQ Index Pollutant
Not available.

Snow Depth

Station Depth Elevation

Earthquake Activity

City Distance Mag. Time & Date
Minimum magnitude displayed is 2.5.

Coastal Water Temperatures

Place Temperature

Nearby Weather Stations